Time;durP1;ratioP1;P1;durP2;ratioP2;P2;SDS_P1;SDS_P2;PMS_P1;PMS_P2;Temp;Humidity;BMP_temperature;BMP_pressure;BME280_temperature;BME280_humidity;BME280_pressure;Samples;Min_cycle;Max_cycle;Signal;HPM_P1;HPM_P2
2023/02/14 00:01:12;;;;;;;7.15;0.75;;;;;;;;;;4782636;30;20071;-63
2023/02/14 00:04:04;;;;;;;8.38;0.95;;;;;;;;;;4782760;29;20062;-62
2023/02/14 00:07:18;;;;;;;3.65;0.80;;;;;;;;;;4793787;29;20050;-62
2023/02/14 00:09:50;;;;;;;5.40;1.00;;;;;;;;;;4792340;29;20064;-62
2023/02/14 00:12:47;;;;;;;4.22;0.63;;;;;;;;;;4790466;29;20066;-62
2023/02/14 00:15:22;;;;;;;6.60;1.23;;;;;;;;;;4829297;29;20524;-63
2023/02/14 00:18:17;;;;;;;8.02;0.95;;;;;;;;;;4857045;29;20049;-62
2023/02/14 00:21:11;;;;;;;;;;;;;;;;;;4877846;29;20499;-62
2023/02/14 00:23:43;;;;;;;2.90;0.50;;;;;;;;;;4877248;29;20340;-62
2023/02/14 00:26:16;;;;;;;3.78;0.60;;;;;;;;;;4877740;29;20057;-62
2023/02/14 00:29:22;;;;;;;1.35;0.90;;;;;;;;;;4850791;29;20411;-62
2023/02/14 00:33:03;;;;;;;3.88;0.60;;;;;;;;;;4840203;29;20050;-62
2023/02/14 00:35:55;;;;;;;1.98;0.90;;;;;;;;;;4821716;29;20063;-62
2023/02/14 00:38:30;;;;;;;2.30;0.60;;;;;;;;;;4762854;30;20165;-63
2023/02/14 00:41:03;;;;;;;1.00;0.50;;;;;;;;;;4772153;30;20055;-62
2023/02/14 00:43:58;;;;;;;1.65;0.47;;;;;;;;;;4791308;29;20055;-62
2023/02/14 00:46:29;;;;;;;1.60;0.52;;;;;;;;;;4759393;30;20056;-63
2023/02/14 00:49:07;;;;;;;0.68;0.32;;;;;;;;;;4779505;30;20505;-61
2023/02/14 00:51:40;;;;;;;1.70;0.40;;;;;;;;;;4816295;29;20084;-62
2023/02/14 00:54:15;;;;;;;3.38;0.60;;;;;;;;;;4821431;29;20139;-62
2023/02/14 00:56:46;;;;;;;1.77;0.52;;;;;;;;;;4806852;29;20062;-62
2023/02/14 00:59:17;;;;;;;1.50;0.50;;;;;;;;;;4800127;29;20062;-62
2023/02/14 01:01:47;;;;;;;1.30;0.60;;;;;;;;;;4768421;29;20063;-61
2023/02/14 01:04:18;;;;;;;2.95;0.55;;;;;;;;;;4843091;29;20054;-61
2023/02/14 01:06:49;;;;;;;1.95;0.50;;;;;;;;;;4841832;29;20058;-62
2023/02/14 01:09:21;;;;;;;4.35;0.50;;;;;;;;;;4836057;29;20055;-62
2023/02/14 01:11:57;;;;;;;1.05;0.50;;;;;;;;;;4824057;29;20057;-63
2023/02/14 01:14:48;;;;;;;1.23;0.47;;;;;;;;;;4854451;29;20062;-62
2023/02/14 01:17:19;;;;;;;2.40;0.40;;;;;;;;;;4858349;29;20073;-62
2023/02/14 01:19:53;;;;;;;2.25;0.57;;;;;;;;;;4856881;29;20054;-62
2023/02/14 01:22:25;;;;;;;5.22;0.68;;;;;;;;;;4817939;29;20055;-62
2023/02/14 01:24:55;;;;;;;2.28;0.60;;;;;;;;;;4803565;29;20054;-62
2023/02/14 01:27:46;;;;;;;3.10;0.50;;;;;;;;;;4733214;29;20060;-62
2023/02/14 01:30:17;;;;;;;4.05;0.50;;;;;;;;;;4745481;30;20064;-62
2023/02/14 01:33:11;;;;;;;2.30;0.60;;;;;;;;;;4808352;29;20061;-62
2023/02/14 01:35:41;;;;;;;2.95;1.17;;;;;;;;;;4839636;29;20061;-62
2023/02/14 01:38:10;;;;;;;2.78;1.20;;;;;;;;;;4857938;29;20054;-62
2023/02/14 01:40:46;;;;;;;2.42;0.60;;;;;;;;;;4876233;29;20053;-62
2023/02/14 01:43:18;;;;;;;0.90;0.50;;;;;;;;;;4839736;29;20057;-62
2023/02/14 01:45:48;;;;;;;1.38;0.50;;;;;;;;;;4839459;29;20499;-62
2023/02/14 01:48:22;;;;;;;3.30;0.60;;;;;;;;;;4888023;29;20057;-62
2023/02/14 01:50:53;;;;;;;3.38;0.80;;;;;;;;;;4894550;29;20060;-62
2023/02/14 01:53:28;;;;;;;1.55;0.60;;;;;;;;;;4852178;29;20172;-62
2023/02/14 01:56:08;;;;;;;6.10;0.90;;;;;;;;;;4894992;29;20173;-63
2023/02/14 01:58:43;;;;;;;6.28;1.02;;;;;;;;;;4910080;29;20098;-62
2023/02/14 02:01:17;;;;;;;2.03;0.70;;;;;;;;;;4909151;29;20056;-62
2023/02/14 02:03:57;;;;;;;4.50;0.60;;;;;;;;;;4894659;29;20083;-62
2023/02/14 02:06:37;;;;;;;1.40;0.70;;;;;;;;;;4956171;28;20187;-63
2023/02/14 02:09:24;;;;;;;2.25;0.50;;;;;;;;;;4894823;29;20056;-62
2023/02/14 02:11:55;;;;;;;2.80;0.50;;;;;;;;;;4894438;29;20044;-62
2023/02/14 02:14:24;;;;;;;2.70;0.73;;;;;;;;;;4931991;29;20052;-62
2023/02/14 02:16:54;;;;;;;0.88;0.47;;;;;;;;;;4935385;29;20590;-63
2023/02/14 02:19:24;;;;;;;0.98;0.57;;;;;;;;;;4931876;29;20185;-62
2023/02/14 02:22:36;;;;;;;4.13;1.08;;;;;;;;;;4932445;29;20064;-62
2023/02/14 02:25:33;;;;;;;1.52;0.63;;;;;;;;;;4932432;29;20055;-62
2023/02/14 02:28:03;;;;;;;1.45;0.63;;;;;;;;;;4910859;29;20048;-62
2023/02/14 02:30:48;;;;;;;4.00;0.60;;;;;;;;;;4968368;28;20054;-62
2023/02/14 02:33:39;;;;;;;1.80;0.60;;;;;;;;;;4989594;28;20046;-61
2023/02/14 02:36:30;;;;;;;1.17;0.60;;;;;;;;;;4989372;28;20566;-62
2023/02/14 02:39:18;;;;;;;2.90;0.60;;;;;;;;;;5010280;28;20058;-62
2023/02/14 02:42:08;;;;;;;3.97;0.93;;;;;;;;;;5012983;28;20049;-62
2023/02/14 02:44:49;;;;;;;1.98;0.88;;;;;;;;;;4989239;28;20431;-62
2023/02/14 02:47:43;;;;;;;1.23;0.40;;;;;;;;;;4957972;28;20050;-62
2023/02/14 02:53:26;;;;;;;1.17;0.60;;;;;;;;;;4931337;29;20051;-62
2023/02/14 02:59:19;;;;;;;1.42;0.57;;;;;;;;;;4865969;29;20100;-62
2023/02/14 03:02:03;;;;;;;2.22;0.50;;;;;;;;;;4864059;29;20060;-62
2023/02/14 03:04:54;;;;;;;2.92;0.60;;;;;;;;;;4874836;29;20057;-62
2023/02/14 03:07:39;;;;;;;0.70;0.40;;;;;;;;;;4875095;29;20518;-62
2023/02/14 03:10:23;;;;;;;3.78;0.70;;;;;;;;;;4853210;29;20456;-62
2023/02/14 03:13:25;;;;;;;4.97;0.70;;;;;;;;;;4837731;29;20065;-63
2023/02/14 03:15:58;;;;;;;6.03;0.52;;;;;;;;;;4803388;29;20061;-62
2023/02/14 03:18:31;;;;;;;1.30;0.52;;;;;;;;;;4801538;29;20062;-62
2023/02/14 03:21:15;;;;;;;2.40;0.40;;;;;;;;;;4820143;29;20076;-62
2023/02/14 03:23:57;;;;;;;4.03;0.85;;;;;;;;;;4893292;29;20053;-61
2023/02/14 03:26:40;;;;;;;1.85;0.90;;;;;;;;;;4901439;29;20064;-62
2023/02/14 03:29:24;;;;;;;0.70;0.30;;;;;;;;;;4936647;29;20059;-63
2023/02/14 03:32:19;;;;;;;1.13;0.60;;;;;;;;;;4930349;29;20051;-63
2023/02/14 03:35:20;;;;;;;2.50;0.57;;;;;;;;;;4950224;29;20058;-62
2023/02/14 03:38:08;;;;;;;1.90;0.40;;;;;;;;;;4949818;29;20073;-62
2023/02/14 03:40:56;;;;;;;2.03;0.55;;;;;;;;;;4950272;29;20059;-62
2023/02/14 03:43:35;;;;;;;1.35;0.60;;;;;;;;;;4911600;29;20056;-62
2023/02/14 03:46:19;;;;;;;3.22;0.50;;;;;;;;;;4892887;29;20059;-63
2023/02/14 03:48:52;;;;;;;3.40;0.43;;;;;;;;;;4859633;29;20061;-62
2023/02/14 03:51:23;;;;;;;;;;;;;;;;;;4870914;29;20106;-61
2023/02/14 03:53:56;;;;;;;3.35;0.60;;;;;;;;;;4867895;29;19924;-62
2023/02/14 03:56:32;;;;;;;1.27;0.82;;;;;;;;;;4907758;29;20684;-62
2023/02/14 03:59:23;;;;;;;1.33;0.70;;;;;;;;;;4908855;29;20057;-64
2023/02/14 04:02:02;;;;;;;0.68;0.30;;;;;;;;;;4893026;29;20056;-62
2023/02/14 04:04:35;;;;;;;1.27;0.50;;;;;;;;;;4886645;29;20056;-62
2023/02/14 04:07:17;;;;;;;3.40;0.60;;;;;;;;;;4896855;29;20618;-63
2023/02/14 04:09:47;;;;;;;1.00;0.45;;;;;;;;;;4931086;29;20516;-61
2023/02/14 04:12:19;;;;;;;3.00;0.30;;;;;;;;;;4930235;29;20504;-62
2023/02/14 04:15:05;;;;;;;2.45;0.35;;;;;;;;;;4943107;28;20077;-62
2023/02/14 04:20:23;;;;;;;0.80;0.60;;;;;;;;;;4956842;28;20058;-62
2023/02/14 04:22:54;;;;;;;2.95;0.57;;;;;;;;;;4988617;28;20051;-62
2023/02/14 04:25:23;;;;;;;2.05;0.47;;;;;;;;;;4988650;28;20089;-62
2023/02/14 04:27:53;;;;;;;1.20;0.50;;;;;;;;;;4971904;28;20549;-63
2023/02/14 04:30:23;;;;;;;1.17;0.50;;;;;;;;;;4972082;28;20054;-63
2023/02/14 04:32:53;;;;;;;0.65;0.35;;;;;;;;;;4988702;28;20053;-64
2023/02/14 04:35:23;;;;;;;2.22;0.52;;;;;;;;;;5051223;28;20072;-62
2023/02/14 04:37:52;;;;;;;1.80;0.60;;;;;;;;;;5087873;28;20044;-62
2023/02/14 04:40:22;;;;;;;0.60;0.40;;;;;;;;;;5054733;28;20052;-63
2023/02/14 04:42:52;;;;;;;0.88;0.57;;;;;;;;;;5054230;28;20758;-61
2023/02/14 04:45:23;;;;;;;0.90;0.43;;;;;;;;;;5087378;28;20052;-63
2023/02/14 04:47:53;;;;;;;0.80;0.40;;;;;;;;;;5087526;28;20051;-61
2023/02/14 04:50:24;;;;;;;0.45;0.22;;;;;;;;;;5025614;28;20098;-63
2023/02/14 04:52:54;;;;;;;1.55;0.52;;;;;;;;;;5027574;28;20057;-63
2023/02/14 04:55:24;;;;;;;2.47;0.68;;;;;;;;;;5012829;28;20056;-63
2023/02/14 04:57:54;;;;;;;0.68;0.40;;;;;;;;;;4997530;28;20042;-61
2023/02/14 05:00:24;;;;;;;0.93;0.40;;;;;;;;;;4999024;28;20068;-62
2023/02/14 05:02:53;;;;;;;1.20;0.47;;;;;;;;;;5045609;28;20508;-63
2023/02/14 05:05:23;;;;;;;2.05;0.60;;;;;;;;;;5047839;28;20057;-64
2023/02/14 05:07:53;;;;;;;0.93;0.73;;;;;;;;;;5011112;28;20053;-62
2023/02/14 05:10:22;;;;;;;2.00;0.50;;;;;;;;;;5014481;28;20064;-62
2023/02/14 05:12:52;;;;;;;2.45;0.50;;;;;;;;;;5040108;28;20052;-65
2023/02/14 05:15:22;;;;;;;1.85;0.43;;;;;;;;;;4981916;28;20068;-62
2023/02/14 05:17:51;;;;;;;1.48;0.40;;;;;;;;;;5030842;28;20068;-62
2023/02/14 05:20:21;;;;;;;2.10;0.57;;;;;;;;;;5032123;28;20394;-64
2023/02/14 05:22:51;;;;;;;0.52;0.35;;;;;;;;;;5033197;28;20412;-63
2023/02/14 05:25:20;;;;;;;3.53;0.50;;;;;;;;;;5051055;28;20048;-62
2023/02/14 05:27:50;;;;;;;0.60;0.35;;;;;;;;;;5066492;28;20053;-63
2023/02/14 05:30:26;;;;;;;1.95;0.50;;;;;;;;;;5083226;28;20054;-62
2023/02/14 05:32:56;;;;;;;0.98;0.52;;;;;;;;;;5073706;28;20052;-63
2023/02/14 05:35:27;;;;;;;1.58;0.50;;;;;;;;;;5091624;28;20044;-64
2023/02/14 05:37:56;;;;;;;1.55;0.40;;;;;;;;;;5092713;28;20491;-65
2023/02/14 05:40:27;;;;;;;2.13;0.57;;;;;;;;;;5059376;28;20059;-62
2023/02/14 05:42:57;;;;;;;1.77;0.63;;;;;;;;;;5043000;28;20054;-63
2023/02/14 05:45:27;;;;;;;1.02;0.40;;;;;;;;;;5113696;28;20487;-63
2023/02/14 05:47:57;;;;;;;1.45;0.52;;;;;;;;;;5111210;28;20043;-64
2023/02/14 05:50:27;;;;;;;0.73;0.32;;;;;;;;;;5072891;28;20467;-62
2023/02/14 05:52:57;;;;;;;0.75;0.40;;;;;;;;;;5100258;28;20040;-63
2023/02/14 05:55:27;;;;;;;0.82;0.40;;;;;;;;;;5113052;28;20483;-62
2023/02/14 05:57:58;;;;;;;0.80;0.40;;;;;;;;;;5113253;28;20044;-63
2023/02/14 06:00:28;;;;;;;0.40;0.30;;;;;;;;;;5060621;28;20059;-62
2023/02/14 06:02:58;;;;;;;3.83;0.63;;;;;;;;;;5076328;28;20427;-62
2023/02/14 06:05:27;;;;;;;2.38;0.93;;;;;;;;;;5087593;28;20048;-63
2023/02/14 06:07:59;;;;;;;1.20;0.50;;;;;;;;;;5089342;28;20056;-64
2023/02/14 06:10:29;;;;;;;1.98;0.52;;;;;;;;;;5072006;28;20087;-65
2023/02/14 06:12:59;;;;;;;1.95;0.77;;;;;;;;;;5089524;28;20095;-61
2023/02/14 06:15:29;;;;;;;1.00;0.40;;;;;;;;;;5088181;28;20463;-63
2023/02/14 06:17:59;;;;;;;0.60;0.40;;;;;;;;;;5038673;28;20056;-62
2023/02/14 06:20:29;;;;;;;0.95;0.50;;;;;;;;;;5089207;28;20036;-64
2023/02/14 06:22:59;;;;;;;2.72;0.55;;;;;;;;;;5039147;28;20056;-62
2023/02/14 06:25:29;;;;;;;2.15;0.75;;;;;;;;;;5089357;28;20051;-62
2023/02/14 06:27:59;;;;;;;1.75;0.50;;;;;;;;;;5089574;28;20059;-64
2023/02/14 06:30:29;;;;;;;2.55;0.70;;;;;;;;;;5008091;28;20451;-63
2023/02/14 06:33:00;;;;;;;0.73;0.45;;;;;;;;;;5089755;28;20510;-62
2023/02/14 06:35:29;;;;;;;1.77;0.63;;;;;;;;;;5089337;28;20543;-62
2023/02/14 06:37:59;;;;;;;2.20;0.35;;;;;;;;;;5089534;28;20083;-64
2023/02/14 06:40:29;;;;;;;1.15;0.52;;;;;;;;;;5055902;28;20052;-62
2023/02/14 06:42:59;;;;;;;2.97;0.40;;;;;;;;;;5048221;28;20051;-62
2023/02/14 06:45:28;;;;;;;0.75;0.40;;;;;;;;;;5112354;28;20039;-62
2023/02/14 06:47:59;;;;;;;1.88;0.47;;;;;;;;;;5112035;28;20036;-64
2023/02/14 06:50:28;;;;;;;0.90;0.40;;;;;;;;;;5112230;28;20529;-62
2023/02/14 06:52:58;;;;;;;1.90;0.45;;;;;;;;;;5059189;28;20404;-62
2023/02/14 06:55:28;;;;;;;1.33;0.60;;;;;;;;;;5112180;28;20040;-62
2023/02/14 06:57:58;;;;;;;1.67;0.45;;;;;;;;;;5112075;28;20047;-64
2023/02/14 07:00:28;;;;;;;0.60;0.35;;;;;;;;;;5075883;28;20066;-63
2023/02/14 07:02:58;;;;;;;1.98;0.30;;;;;;;;;;5111811;28;20050;-62
2023/02/14 07:05:28;;;;;;;1.05;0.40;;;;;;;;;;4994307;28;20513;-62
2023/02/14 07:07:58;;;;;;;1.65;0.43;;;;;;;;;;5111069;28;20039;-63
2023/02/14 07:10:28;;;;;;;1.00;0.32;;;;;;;;;;5026381;28;20055;-62
2023/02/14 07:12:58;;;;;;;0.43;0.32;;;;;;;;;;5092634;28;20051;-62
2023/02/14 07:15:28;;;;;;;3.30;0.45;;;;;;;;;;5111566;28;20040;-62
2023/02/14 07:17:58;;;;;;;0.55;0.32;;;;;;;;;;5111736;28;20344;-63
2023/02/14 07:20:28;;;;;;;0.77;0.30;;;;;;;;;;5093711;28;20043;-62
2023/02/14 07:22:57;;;;;;;1.42;0.93;;;;;;;;;;5092305;28;20059;-62
2023/02/14 07:25:27;;;;;;;1.77;0.30;;;;;;;;;;5110970;28;20070;-62
2023/02/14 07:27:57;;;;;;;0.57;0.30;;;;;;;;;;5057263;28;20064;-63
2023/02/14 07:30:27;;;;;;;0.70;0.35;;;;;;;;;;5076331;28;20533;-62
2023/02/14 07:32:58;;;;;;;1.17;0.47;;;;;;;;;;5076139;28;20055;-62
2023/02/14 07:35:28;;;;;;;0.82;0.30;;;;;;;;;;5059015;28;20525;-62
2023/02/14 07:37:58;;;;;;;0.85;0.50;;;;;;;;;;5051111;28;20048;-63
2023/02/14 07:40:28;;;;;;;2.90;0.45;;;;;;;;;;5051261;28;20496;-62
2023/02/14 07:42:59;;;;;;;2.75;0.40;;;;;;;;;;5051837;28;20428;-62
2023/02/14 07:45:29;;;;;;;0.95;0.35;;;;;;;;;;5051728;28;20412;-62
2023/02/14 07:48:00;;;;;;;0.90;0.40;;;;;;;;;;5017928;28;21089;-62
2023/02/14 07:50:30;;;;;;;2.42;0.38;;;;;;;;;;5068131;28;20051;-62
2023/02/14 07:53:00;;;;;;;0.47;0.30;;;;;;;;;;5068148;28;20056;-62
2023/02/14 07:55:30;;;;;;;1.25;0.50;;;;;;;;;;5018908;28;20057;-62
2023/02/14 07:58:00;;;;;;;1.30;0.38;;;;;;;;;;5067564;28;20052;-63
2023/02/14 08:00:30;;;;;;;3.92;0.30;;;;;;;;;;5068303;28;20052;-62
2023/02/14 08:02:59;;;;;;;2.25;0.50;;;;;;;;;;5068207;28;20057;-63
2023/02/14 08:05:30;;;;;;;0.98;0.32;;;;;;;;;;5018427;28;20459;-62
2023/02/14 08:08:00;;;;;;;3.75;0.40;;;;;;;;;;5036295;28;20543;-62
2023/02/14 08:10:29;;;;;;;1.20;0.52;;;;;;;;;;5111093;28;20047;-62
2023/02/14 08:12:59;;;;;;;1.17;0.82;;;;;;;;;;5111093;28;20388;-62
2023/02/14 08:18:25;;;;;;;4.53;0.63;;;;;;;;;;5074577;28;20051;-62
2023/02/14 08:20:56;;;;;;;1.17;0.43;;;;;;;;;;5058042;28;20074;-62
2023/02/14 08:23:26;;;;;;;1.50;0.70;;;;;;;;;;5111004;28;20387;-63
2023/02/14 08:25:56;;;;;;;0.95;0.40;;;;;;;;;;5111068;28;20051;-62
2023/02/14 08:28:28;;;;;;;0.60;0.35;;;;;;;;;;5111218;28;20044;-62
2023/02/14 08:30:58;;;;;;;0.63;0.50;;;;;;;;;;5074972;28;20399;-62
2023/02/14 08:33:28;;;;;;;2.58;0.43;;;;;;;;;;5110585;28;20417;-62
2023/02/14 08:35:59;;;;;;;1.00;0.30;;;;;;;;;;5111231;28;20044;-63
2023/02/14 08:38:29;;;;;;;0.82;0.38;;;;;;;;;;5074417;28;20058;-62
2023/02/14 08:41:00;;;;;;;1.52;0.50;;;;;;;;;;5079386;28;20503;-61
2023/02/14 08:43:35;;;;;;;0.80;0.40;;;;;;;;;;5030991;28;20546;-62
2023/02/14 08:46:05;;;;;;;0.68;0.30;;;;;;;;;;5054221;28;20052;-61
2023/02/14 08:48:34;;;;;;;0.70;0.30;;;;;;;;;;5070792;28;20084;-62
2023/02/14 08:51:09;;;;;;;1.10;0.50;;;;;;;;;;5051331;28;20057;-62
2023/02/14 08:53:40;;;;;;;1.50;0.57;;;;;;;;;;5018010;28;20053;-62
2023/02/14 08:56:13;;;;;;;1.35;0.40;;;;;;;;;;5051188;28;20053;-63
2023/02/14 08:58:43;;;;;;;1.50;0.55;;;;;;;;;;4975095;28;20046;-62
2023/02/14 09:01:16;;;;;;;0.73;0.38;;;;;;;;;;4991960;28;20058;-62
2023/02/14 09:03:47;;;;;;;1.02;0.47;;;;;;;;;;4991571;28;20058;-63
2023/02/14 09:06:17;;;;;;;1.05;0.63;;;;;;;;;;4959230;28;20066;-63
2023/02/14 09:08:47;;;;;;;1.35;0.40;;;;;;;;;;4991219;28;20058;-63
2023/02/14 09:11:23;;;;;;;2.47;0.50;;;;;;;;;;4991395;28;20062;-65
2023/02/14 09:13:53;;;;;;;16.98;1.02;;;;;;;;;;4959237;28;20050;-63
2023/02/14 09:16:24;;;;;;;15.23;0.77;;;;;;;;;;4971791;28;20066;-65
2023/02/14 09:18:55;;;;;;;25.75;1.00;;;;;;;;;;4971923;28;20589;-65
2023/02/14 09:21:27;;;;;;;3.13;1.55;;;;;;;;;;4923981;28;20486;-64
2023/02/14 09:23:58;;;;;;;5.35;0.50;;;;;;;;;;4983392;28;20058;-63
2023/02/14 09:26:28;;;;;;;4.32;0.60;;;;;;;;;;4991297;28;20054;-63
2023/02/14 09:28:57;;;;;;;9.57;0.70;;;;;;;;;;5013600;28;20045;-63
2023/02/14 09:31:27;;;;;;;5.88;0.60;;;;;;;;;;5030562;28;20497;-62
2023/02/14 09:33:58;;;;;;;8.90;0.60;;;;;;;;;;5030400;28;20057;-64
2023/02/14 09:36:28;;;;;;;6.57;0.60;;;;;;;;;;5052037;28;20056;-64
2023/02/14 09:38:58;;;;;;;3.97;0.60;;;;;;;;;;5037133;28;20084;-63
2023/02/14 09:41:28;;;;;;;11.00;0.70;;;;;;;;;;5020519;28;20048;-63
2023/02/14 09:44:16;;;;;;;6.13;0.60;;;;;;;;;;5070148;28;20515;-63
2023/02/14 09:46:51;;;;;;;2.78;0.60;;;;;;;;;;5047193;28;20051;-63
2023/02/14 09:49:36;;;;;;;8.52;1.08;;;;;;;;;;5112811;28;20407;-63
2023/02/14 09:52:13;;;;;;;5.82;0.80;;;;;;;;;;5059718;28;20109;-64
2023/02/14 09:54:50;;;;;;;4.07;0.80;;;;;;;;;;5077387;28;20059;-63
2023/02/14 09:57:45;;;;;;;6.28;0.80;;;;;;;;;;5113322;28;20411;-63
2023/02/14 10:00:41;;;;;;;4.78;0.50;;;;;;;;;;5060457;28;20487;-63
2023/02/14 10:03:15;;;;;;;0.93;0.60;;;;;;;;;;5112955;28;20040;-63
2023/02/14 10:05:59;;;;;;;1.25;0.63;;;;;;;;;;5113059;28;20399;-63
2023/02/14 10:09:08;;;;;;;1.67;0.80;;;;;;;;;;5113252;28;20051;-63
2023/02/14 10:11:39;;;;;;;1.33;0.60;;;;;;;;;;5093630;28;20561;-64
2023/02/14 10:14:29;;;;;;;1.75;0.93;;;;;;;;;;4994536;28;20364;-63
2023/02/14 10:17:08;;;;;;;1.42;0.85;;;;;;;;;;5112550;28;20055;-63
2023/02/14 10:19:59;;;;;;;2.40;0.60;;;;;;;;;;5078378;28;20056;-63
2023/02/14 10:22:45;;;;;;;1.30;0.50;;;;;;;;;;5112586;28;20039;-63
2023/02/14 10:25:30;;;;;;;1.13;0.50;;;;;;;;;;5076798;28;20071;-64
2023/02/14 10:28:01;;;;;;;4.47;0.70;;;;;;;;;;5112348;28;20035;-63
2023/02/14 10:30:38;;;;;;;1.00;0.50;;;;;;;;;;5056167;28;20067;-64
2023/02/14 10:33:21;;;;;;;2.00;0.50;;;;;;;;;;5056245;28;20059;-63
2023/02/14 10:36:14;;;;;;;2.30;0.55;;;;;;;;;;5039486;28;20055;-64
2023/02/14 10:38:50;;;;;;;1.33;0.75;;;;;;;;;;5091387;28;20403;-65
2023/02/14 10:41:28;;;;;;;1.58;0.47;;;;;;;;;;5091675;28;20036;-63
2023/02/14 10:43:59;;;;;;;3.40;0.52;;;;;;;;;;5091364;28;20059;-63
2023/02/14 10:46:56;;;;;;;2.55;0.50;;;;;;;;;;5055989;28;20056;-65
2023/02/14 10:49:50;;;;;;;1.65;0.60;;;;;;;;;;5052130;28;20055;-64
2023/02/14 10:52:38;;;;;;;0.68;0.43;;;;;;;;;;5052229;28;20400;-63
2023/02/14 10:55:45;;;;;;;1.77;0.50;;;;;;;;;;5089227;28;20047;-63
2023/02/14 10:58:19;;;;;;;2.38;0.70;;;;;;;;;;5035877;28;20071;-62
2023/02/14 11:01:07;;;;;;;1.70;0.50;;;;;;;;;;5068159;28;20566;-63
2023/02/14 11:03:40;;;;;;;2.22;0.50;;;;;;;;;;4999458;28;20063;-63
2023/02/14 11:06:11;;;;;;;1.40;0.52;;;;;;;;;;5053226;28;20033;-64
2023/02/14 11:08:42;;;;;;;2.28;0.60;;;;;;;;;;5019499;28;20060;-63
2023/02/14 11:11:23;;;;;;;2.83;0.60;;;;;;;;;;5068672;28;20044;-63
2023/02/14 11:13:53;;;;;;;1.70;0.47;;;;;;;;;;5068433;28;20056;-62
2023/02/14 11:16:36;;;;;;;1.00;0.30;;;;;;;;;;5068157;28;20444;-63
2023/02/14 11:19:15;;;;;;;1.45;0.38;;;;;;;;;;5068071;28;20049;-63
2023/02/14 11:21:47;;;;;;;4.97;1.15;;;;;;;;;;5068581;28;20056;-62
2023/02/14 11:24:40;;;;;;;1.73;0.30;;;;;;;;;;5051906;28;20067;-62
2023/02/14 11:27:10;;;;;;;0.90;0.40;;;;;;;;;;5068496;28;20056;-62
2023/02/14 11:29:51;;;;;;;0.75;0.28;;;;;;;;;;5067944;28;20049;-63
2023/02/14 11:32:27;;;;;;;4.45;0.30;;;;;;;;;;5052026;28;20044;-63
2023/02/14 11:35:02;;;;;;;0.80;0.30;;;;;;;;;;5068760;28;20526;-63
2023/02/14 11:37:38;;;;;;;0.32;0.20;;;;;;;;;;5070716;28;20055;-63
2023/02/14 11:40:29;;;;;;;0.95;0.38;;;;;;;;;;5070828;28;20036;-62
2023/02/14 11:43:01;;;;;;;2.50;0.77;;;;;;;;;;5070853;28;20424;-63
2023/02/14 11:45:44;;;;;;;1.13;0.38;;;;;;;;;;5070670;28;20055;-64
2023/02/14 11:48:27;;;;;;;1.17;0.43;;;;;;;;;;5070578;28;20737;-63
2023/02/14 11:51:15;;;;;;;1.08;0.38;;;;;;;;;;5070306;28;20048;-63
2023/02/14 11:53:59;;;;;;;1.75;0.40;;;;;;;;;;5070488;28;20060;-63
2023/02/14 11:57:00;;;;;;;0.98;0.40;;;;;;;;;;4989010;28;20067;-63
2023/02/14 11:59:39;;;;;;;1.98;0.40;;;;;;;;;;5070256;28;20052;-63
2023/02/14 12:02:48;;;;;;;3.47;0.52;;;;;;;;;;5051541;28;20057;-64
2023/02/14 12:05:36;;;;;;;2.15;0.68;;;;;;;;;;5070129;28;20389;-62
2023/02/14 12:08:09;;;;;;;0.85;0.40;;;;;;;;;;5051452;28;20083;-64
2023/02/14 12:10:43;;;;;;;1.42;0.50;;;;;;;;;;5020199;28;20428;-64
2023/02/14 12:13:12;;;;;;;1.05;0.43;;;;;;;;;;5070405;28;20044;-62
2023/02/14 12:15:42;;;;;;;4.97;0.50;;;;;;;;;;5074006;28;20071;-63
2023/02/14 12:18:18;;;;;;;2.08;0.82;;;;;;;;;;5074805;28;20400;-63
2023/02/14 12:21:16;;;;;;;0.68;0.52;;;;;;;;;;5074505;28;20055;-63
2023/02/14 12:24:19;;;;;;;0.80;0.40;;;;;;;;;;5074373;28;20044;-63
2023/02/14 12:27:04;;;;;;;2.92;0.40;;;;;;;;;;5055317;28;20052;-63
2023/02/14 12:29:45;;;;;;;0.93;0.40;;;;;;;;;;5051491;28;20057;-63
2023/02/14 12:32:26;;;;;;;1.80;0.47;;;;;;;;;;5070404;28;20060;-64
2023/02/14 12:35:16;;;;;;;8.43;0.77;;;;;;;;;;5068043;28;20408;-63
2023/02/14 12:38:01;;;;;;;3.58;1.13;;;;;;;;;;5071568;28;20511;-63
2023/02/14 12:41:06;;;;;;;2.78;0.40;;;;;;;;;;5071021;28;20052;-65
2023/02/14 12:43:54;;;;;;;2.30;0.40;;;;;;;;;;5038605;28;20052;-64
2023/02/14 12:46:35;;;;;;;1.95;0.45;;;;;;;;;;5071474;28;20052;-63
2023/02/14 12:49:22;;;;;;;1.95;0.50;;;;;;;;;;5066081;28;20049;-62
2023/02/14 12:52:27;;;;;;;1.70;0.60;;;;;;;;;;5028728;28;20382;-63
2023/02/14 12:55:17;;;;;;;2.40;0.65;;;;;;;;;;5041836;28;20432;-64
2023/02/14 12:58:29;;;;;;;1.13;0.30;;;;;;;;;;5050136;28;20064;-62
2023/02/14 13:01:15;;;;;;;1.73;0.60;;;;;;;;;;5017221;28;20053;-62
2023/02/14 13:04:19;;;;;;;1.08;0.32;;;;;;;;;;5050316;28;20060;-62
2023/02/14 13:07:07;;;;;;;1.60;0.40;;;;;;;;;;5057004;28;20048;-62
2023/02/14 13:10:07;;;;;;;1.95;0.38;;;;;;;;;;5036840;28;20052;-64
2023/02/14 13:12:48;;;;;;;0.52;0.30;;;;;;;;;;5070431;28;20081;-62
2023/02/14 13:15:37;;;;;;;1.77;0.63;;;;;;;;;;5037642;28;20052;-63
2023/02/14 13:18:27;;;;;;;1.08;0.70;;;;;;;;;;5050650;28;20053;-63
2023/02/14 13:21:01;;;;;;;1.20;0.50;;;;;;;;;;5050717;28;20535;-63
2023/02/14 13:23:46;;;;;;;1.48;0.52;;;;;;;;;;5034500;28;20560;-64
2023/02/14 13:26:21;;;;;;;1.27;0.52;;;;;;;;;;5049457;28;20061;-63
2023/02/14 13:29:19;;;;;;;2.00;0.40;;;;;;;;;;5030241;28;20061;-64
2023/02/14 13:31:51;;;;;;;0.90;0.52;;;;;;;;;;4958867;28;20311;-63
2023/02/14 13:34:27;;;;;;;2.75;0.47;;;;;;;;;;4990760;28;20169;-65
2023/02/14 13:37:00;;;;;;;0.70;0.50;;;;;;;;;;4991436;28;20058;-63
2023/02/14 13:39:50;;;;;;;2.33;0.57;;;;;;;;;;4990905;28;20046;-62
2023/02/14 13:42:48;;;;;;;5.40;0.38;;;;;;;;;;4971871;28;20062;-63
2023/02/14 13:45:36;;;;;;;1.45;0.40;;;;;;;;;;4971618;28;20047;-62
2023/02/14 13:48:19;;;;;;;0.85;0.57;;;;;;;;;;4955372;28;20763;-63
2023/02/14 13:51:03;;;;;;;1.15;0.35;;;;;;;;;;4971720;28;20126;-62
2023/02/14 13:53:40;;;;;;;0.73;0.47;;;;;;;;;;4978955;28;20062;-64
2023/02/14 13:56:15;;;;;;;1.38;0.47;;;;;;;;;;4983783;28;20053;-65
2023/02/14 13:58:48;;;;;;;1.75;0.90;;;;;;;;;;5006846;28;20410;-63
2023/02/14 14:01:48;;;;;;;4.25;0.60;;;;;;;;;;4965215;28;20057;-67
2023/02/14 14:04:27;;;;;;;11.23;2.13;;;;;;;;;;4990261;28;20066;-61
2023/02/14 14:06:59;;;;;;;;;;;;;;;;;;4943964;28;20050;-61
2023/02/14 14:09:44;;;;;;;2.55;0.63;;;;;;;;;;4997907;28;19922;-61
2023/02/14 14:12:26;;;;;;;2.85;0.70;;;;;;;;;;4989470;28;20061;-64
2023/02/14 14:15:05;;;;;;;2.08;0.90;;;;;;;;;;4957156;28;20512;-64
2023/02/14 14:17:38;;;;;;;2.63;0.95;;;;;;;;;;5001863;28;20054;-64
2023/02/14 14:20:20;;;;;;;2.42;1.00;;;;;;;;;;4992169;28;20049;-62
2023/02/14 14:23:00;;;;;;;2.90;0.60;;;;;;;;;;5044140;28;20048;-63
2023/02/14 14:25:37;;;;;;;2.15;0.65;;;;;;;;;;5049408;28;20056;-62
2023/02/14 14:28:16;;;;;;;2.20;0.90;;;;;;;;;;5026922;28;20056;-64
2023/02/14 14:30:46;;;;;;;2.13;0.80;;;;;;;;;;5014372;28;20416;-64
2023/02/14 14:33:32;;;;;;;1.75;0.70;;;;;;;;;;5018197;28;20057;-64
2023/02/14 14:36:11;;;;;;;3.65;0.55;;;;;;;;;;4981182;28;20049;-62
2023/02/14 14:38:48;;;;;;;1.63;0.70;;;;;;;;;;4996293;28;20529;-62
2023/02/14 14:41:20;;;;;;;1.63;0.73;;;;;;;;;;5037318;28;20096;-62
2023/02/14 14:43:50;;;;;;;1.77;0.77;;;;;;;;;;5063914;28;20048;-62
2023/02/14 14:46:22;;;;;;;3.20;0.93;;;;;;;;;;5068983;28;20056;-61
2023/02/14 14:48:54;;;;;;;1.33;0.63;;;;;;;;;;5068606;28;20037;-65
2023/02/14 14:51:27;;;;;;;;;;;;;;;;;;5069491;28;20139;-64
2023/02/14 14:54:05;;;;;;;1.67;0.60;;;;;;;;;;5068382;28;19931;-62
2023/02/14 14:56:43;;;;;;;1.58;0.60;;;;;;;;;;5065486;28;20503;-64
2023/02/14 14:59:30;;;;;;;1.17;0.70;;;;;;;;;;5068888;28;20083;-64
2023/02/14 15:02:02;;;;;;;2.97;0.88;;;;;;;;;;5000067;28;20060;-64
2023/02/14 15:04:34;;;;;;;1.10;0.70;;;;;;;;;;5048953;28;20057;-63
2023/02/14 15:07:29;;;;;;;1.27;0.60;;;;;;;;;;5068411;28;20496;-63
2023/02/14 15:10:00;;;;;;;0.90;0.50;;;;;;;;;;5068822;28;20199;-65
2023/02/14 15:15:21;;;;;;;2.35;0.70;;;;;;;;;;5036218;28;20052;-64
2023/02/14 15:17:51;;;;;;;4.63;1.02;;;;;;;;;;5068826;28;20159;-66
2023/02/14 15:20:23;;;;;;;1.98;0.90;;;;;;;;;;5035846;28;20420;-65
2023/02/14 15:22:53;;;;;;;1.65;0.82;;;;;;;;;;5068630;28;20048;-64
2023/02/14 15:25:28;;;;;;;2.88;0.80;;;;;;;;;;5068650;28;20476;-64
2023/02/14 15:27:57;;;;;;;1.33;0.85;;;;;;;;;;5068747;28;20044;-64
2023/02/14 15:30:33;;;;;;;1.35;0.90;;;;;;;;;;5068483;28;20056;-64
2023/02/14 15:33:05;;;;;;;2.90;0.80;;;;;;;;;;5051594;28;20504;-64
2023/02/14 15:35:42;;;;;;;3.13;0.80;;;;;;;;;;5068107;28;20045;-64
2023/02/14 15:38:13;;;;;;;1.10;0.70;;;;;;;;;;5048336;28;20052;-64
2023/02/14 15:40:44;;;;;;;1.67;0.73;;;;;;;;;;5048105;28;20527;-63
2023/02/14 15:43:35;;;;;;;1.25;0.70;;;;;;;;;;5048353;28;20053;-63
2023/02/14 15:46:25;;;;;;;2.25;0.90;;;;;;;;;;5048162;28;20424;-64
2023/02/14 15:48:59;;;;;;;2.25;0.80;;;;;;;;;;5047461;28;20501;-64
2023/02/14 15:51:35;;;;;;;1.95;0.90;;;;;;;;;;5031264;28;20045;-64
2023/02/14 15:54:17;;;;;;;1.77;0.77;;;;;;;;;;5048348;28;20620;-64
2023/02/14 15:56:51;;;;;;;1.17;0.88;;;;;;;;;;5048273;28;20056;-64
2023/02/14 15:59:28;;;;;;;2.40;0.80;;;;;;;;;;5047854;28;20057;-64